Flight Track Log - Related Links

Times and Time Zones

All times are in EDT time to prevent confusion due to time zone crossing. See the SWA2966 flight status page for this flight to view local times or setup timezone preferences in your user account.

Time Position Orientation Groundspeed Altitude Reporting Facility
EDT Latitude Longitude Course Direction KTS MPH feet Rate Location/Type
03:24PM 37.7347 -122.2639 298° West 173 199 1,500  Level Oakland Center
03:25PM 37.7614 -122.3281 298° West 212 244 4,600 3,387 Climbing Oakland Center
03:26PM 37.7133 -122.3797 220° Southwest 244 281 8,500 4,101 Climbing Oakland Center
03:26PM 37.7000 -122.4000 230° Southwest 249 287 10,000 2,634 Climbing Northern Cal TRACON
03:28PM 37.5847 -122.3250 153° Southeast 324 373 13,900 2,515 Climbing Oakland Center
03:29PM 37.5178 -122.2253 130° Southeast 372 428 17,000 2,488 Climbing Oakland Center
03:30PM 37.4478 -122.1219 130° Southeast 386 444 19,000 1,220 Climbing Oakland Center
03:31PM 37.3789 -122.0144 129° Southeast 393 452 19,500 1,805 Climbing Oakland Center
03:32PM 37.2928 -121.8842 130° Southeast 405 466 22,700 2,710 Climbing Oakland Center
03:33PM 37.2228 -121.7783 130° Southeast 419 482 25,100 2,341 Climbing Oakland Center
03:34PM 37.1453 -121.6592 129° Southeast 436 502 27,500 2,146 Climbing Oakland Center
03:35PM 37.0572 -121.5339 131° Southeast 446 513 29,500 1,854 Climbing Oakland Center
03:36PM 36.9767 -121.4061 128° Southeast 464 534 31,300 1,902 Climbing Oakland Center
03:37PM 36.8933 -121.2794 129° Southeast 470 541 33,400 1,984 Climbing Oakland Center
03:39PM 36.7933 -121.1378 131° Southeast 466 536 35,400 1,805 Climbing Oakland Center
03:40PM 36.7097 -121.0142 130° Southeast 464 534 37,100 1,659 Climbing Oakland Center
03:41PM 36.6283 -120.8906 129° Southeast 460 529 38,800 919 Climbing Oakland Center
03:42PM 36.5469 -120.7667 129° Southeast 463 533 39,000 98 Climbing Oakland Center
03:43PM 36.4633 -120.6439 130° Southeast 464 534 39,000  Level Oakland Center
03:44PM 36.3783 -120.5217 131° Southeast 466 536 39,000  Level Oakland Center
03:45PM 36.2942 -120.3969 130° Southeast 469 540 39,000  Level Oakland Center
03:46PM 36.2100 -120.2753 131° Southeast 465 535 39,000  Level Oakland Center
03:47PM 36.1086 -120.1292 131° Southeast 463 533 39,000  Level Oakland Center
03:48PM 36.0250 -120.0081 130° Southeast 460 529 39,000  Level Oakland Center
03:49PM 35.9444 -119.8961 132° Southeast 437 503 39,000  Level Oakland Center
03:50PM 35.8592 -119.7739 131° Southeast 460 529 39,000  Level Oakland Center
03:51PM 35.7756 -119.6547 131° Southeast 459 528 39,000  Level Oakland Center
03:52PM 35.6903 -119.5342 131° Southeast 464 534 39,000 -355 Level Oakland Center
03:54PM 35.5236 -119.2975 131° Southeast 458 527 37,900 -645 Descending Los Angeles Center
03:55PM 35.4392 -119.1764 131° Southeast 464 534 37,000 -1,016 Descending Los Angeles Center
03:56PM 35.3358 -119.0325 131° Southeast 466 536 35,800 -1,016 Descending Los Angeles Center
03:57PM 35.2494 -118.9111 131° Southeast 471 542 34,900 -629 Descending Los Angeles Center
03:58PM 35.1647 -118.7931 131° Southeast 463 533 34,500 -1,065 Descending Los Angeles Center
03:59PM 35.0797 -118.6794 132° Southeast 454 522 32,700 -1,887 Descending Los Angeles Center
04:00PM 34.9997 -118.5661 131° Southeast 443 510 30,600 -1,984 Descending Los Angeles Center
04:01PM 34.9192 -118.4575 132° Southeast 429 494 28,600 -2,129 Descending Los Angeles Center
04:02PM 34.8272 -118.3325 132° Southeast 416 479 26,200 -2,640 Descending Los Angeles Center
04:03PM 34.7517 -118.2289 132° Southeast 412 474 23,100 -2,304 Descending Los Angeles Center
04:04PM 34.6728 -118.1219 132° Southeast 424 488 21,400 -1,452 Descending Los Angeles Center
04:05PM 34.6069 -118.0150 127° Southeast 404 465 20,100 -1,065 Descending Los Angeles Center
04:06PM 34.5581 -117.9056 118° Southeast 373 429 19,200 -1,452 Descending Los Angeles Center
04:07PM 34.5017 -117.7819 119° Southeast 355 409 17,100 -1,790 Descending Los Angeles Center
04:08PM 34.4547 -117.6808 119° Southeast 345 397 15,500 -1,306 Descending Los Angeles Center
04:09PM 34.4106 -117.5861 119° Southeast 329 379 14,400 -1,210 Descending Los Angeles Center
04:10PM 34.3786 -117.5139 118° Southeast 314 361 13,000 -677 Descending Los Angeles Center
04:12PM 34.3306 -117.4083 119° Southeast 301 346 13,000 -532 Level Los Angeles Center
04:13PM 34.2744 -117.3094 124° Southeast 299 344 11,900 -1,296 Descending Los Angeles Center
04:14PM 34.2106 -117.2883 165° South 256 295 10,300 -2,064 Descending Los Angeles Center
04:15PM 34.1494 -117.3447 217° Southwest 275 316 7,600 -2,688 Descending Los Angeles Center
04:15PM 34.1167 -117.3833 224° Southwest 272 313 6,000 -1,213 Descending Southern California TRACON
04:16PM 34.0667 -117.4333 220° Southwest 181 208 5,700 -1,050 Descending Southern California TRACON
04:17PM 34.0500 -117.4833 248° West 161 185 3,900 -1,850 Descending Southern California TRACON
04:18PM 34.0500 -117.5167 270° West 160 184 2,000 -1,300 Descending Southern California TRACON
04:19PM 34.0500 -117.5667 270° West 138 159 1,300 -700 Descending Southern California TRACON
04:21PM 34.0500 -117.6000 270° West  Level FlightAware Approximate
04:28PM 34.0560 -117.6012 270° West  Level Estimated
04:29PM 34.0500 -117.6000 270° West  Level FlightAware Approximate

Login

Don't have an account? Register now (free) for customized features, flight alerts, and more!